Time;durP1;ratioP1;P1;durP2;ratioP2;P2;SDS_P1;SDS_P2;PMS_P1;PMS_P2;Temp;Humidity;BMP_temperature;BMP_pressure;BME280_temperature;BME280_humidity;BME280_pressure;Samples;Min_cycle;Max_cycle;Signal;HPM_P1;HPM_P2
2021/06/21 00:07:21;;;;;;;6.47;3.50;;;22.10;99.90;;;;;;6749293;88;20181;-79
2021/06/21 00:17:21;;;;;;;4.97;3.30;;;22.00;99.90;;;;;;6755416;88;20188;-80
2021/06/21 00:27:24;;;;;;;4.70;3.15;;;21.90;99.90;;;;;;6756248;88;20201;-80
2021/06/21 00:37:25;;;;;;;6.85;4.00;;;21.50;99.90;;;;;;6757950;88;20639;-80
2021/06/21 00:47:26;;;;;;;6.05;4.00;;;21.20;99.90;;;;;;6756885;88;20302;-80
2021/06/21 00:57:31;;;;;;;7.57;4.60;;;21.10;99.90;;;;;;6756777;88;20192;-80
2021/06/21 01:07:32;;;;;;;6.22;4.37;;;21.10;99.90;;;;;;6759291;87;20702;-80
2021/06/21 01:17:38;;;;;;;5.80;4.20;;;20.90;99.90;;;;;;6768814;87;20160;-80
2021/06/21 01:28:17;;;;;;;6.93;2.80;;;20.80;99.90;;;;;;6768856;87;20208;-82
2021/06/21 01:38:24;;;;;;;7.28;2.67;;;20.90;99.90;;;;;;6631297;89;20312;-82
2021/06/21 01:48:26;;;;;;;6.75;2.53;;;20.90;99.90;;;;;;6631412;89;20166;-82
2021/06/21 01:58:29;;;;;;;9.02;2.45;;;20.90;99.90;;;;;;6630951;89;21075;-82
2021/06/21 02:08:31;;;;;;;6.43;2.13;;;20.90;99.90;;;;;;6692368;87;20165;-82
2021/06/21 02:18:33;;;;;;;4.47;1.67;;;20.80;99.90;;;;;;6731452;88;20203;-81
2021/06/21 02:28:35;;;;;;;6.47;1.85;;;20.70;99.90;;;;;;6696783;88;20159;-85
2021/06/21 02:38:36;;;;;;;7.40;1.80;;;20.60;99.90;;;;;;6697435;88;20230;-80
2021/06/21 02:48:36;;;;;;;4.18;1.65;;;20.40;99.90;;;;;;6724140;88;20146;-81
2021/06/21 02:58:45;;;;;;;6.37;1.70;;;20.50;99.90;;;;;;6759991;87;20174;-82
2021/06/21 03:08:47;;;;;;;6.47;1.60;;;20.40;99.90;;;;;;6767917;87;20165;-81
2021/06/21 03:18:48;;;;;;;8.82;1.50;;;20.30;99.90;;;;;;6767940;87;20246;-81
2021/06/21 03:28:49;;;;;;;7.50;1.67;;;20.10;99.90;;;;;;6767492;87;20150;-81
2021/06/21 03:38:49;;;;;;;8.00;1.73;;;20.10;99.90;;;;;;6767325;87;20811;-81
2021/06/21 03:48:51;;;;;;;5.22;1.65;;;20.10;99.90;;;;;;6730466;88;20198;-80
2021/06/21 03:58:52;;;;;;;7.75;1.58;;;20.30;99.90;;;;;;6696009;88;20977;-80
2021/06/21 04:08:53;;;;;;;9.57;2.00;;;20.20;99.90;;;;;;6696077;88;20175;-81
2021/06/21 04:18:53;;;;;;;8.20;2.22;;;20.10;99.90;;;;;;6709565;88;20178;-80
2021/06/21 04:38:57;;;;;;;6.78;2.53;;;20.10;99.90;;;;;;6791604;87;20199;-80
2021/06/21 04:48:58;;;;;;;6.70;2.65;;;20.00;99.90;;;;;;6771389;87;20544;-80
2021/06/21 04:58:58;;;;;;;6.18;2.40;;;20.00;99.90;;;;;;6771149;88;20221;-79
2021/06/21 05:08:59;;;;;;;6.28;2.28;;;20.00;99.90;;;;;;6771997;87;20682;-80
2021/06/21 05:18:59;;;;;;;12.40;2.90;;;20.00;99.90;;;;;;6772609;88;20732;-80
2021/06/21 05:29:00;;;;;;;9.60;2.42;;;20.10;99.90;;;;;;6770347;87;20554;-79
2021/06/21 05:39:01;;;;;;;8.40;2.60;;;20.40;99.90;;;;;;6773756;87;20191;-81
2021/06/21 05:49:01;;;;;;;10.52;3.00;;;20.40;99.90;;;;;;6774078;88;20656;-80
2021/06/21 05:59:02;;;;;;;9.77;3.00;;;19.90;99.90;;;;;;6767828;87;20301;-80
2021/06/21 06:09:03;;;;;;;9.27;3.05;;;19.70;99.90;;;;;;6769963;87;20265;-81
2021/06/21 06:19:03;;;;;;;6.43;2.30;;;19.70;99.90;;;;;;6778311;87;20216;-80
2021/06/21 06:29:04;;;;;;;5.45;2.10;;;20.10;99.90;;;;;;6772686;87;20278;-81
2021/06/21 06:39:05;;;;;;;3.17;1.70;;;20.30;99.90;;;;;;6770618;88;20317;-81
2021/06/21 06:49:06;;;;;;;3.33;1.40;;;21.20;99.90;;;;;;6769211;87;20800;-80
2021/06/21 06:59:07;;;;;;;3.40;1.15;;;21.90;99.90;;;;;;6770825;87;20330;-82
2021/06/21 07:09:07;;;;;;;5.10;1.37;;;22.50;99.90;;;;;;6771998;87;20280;-80
2021/06/21 07:19:08;;;;;;;3.00;1.30;;;22.70;99.90;;;;;;6769206;88;20248;-83
2021/06/21 07:29:09;;;;;;;5.32;1.65;;;22.60;99.90;;;;;;6770988;87;20203;-79
2021/06/21 07:39:10;;;;;;;6.25;1.60;;;22.80;99.90;;;;;;6760707;88;20183;-80
2021/06/21 07:49:11;;;;;;;2.40;1.10;;;22.70;99.90;;;;;;6766754;88;20199;-79
2021/06/21 07:59:11;;;;;;;4.45;1.40;;;23.00;99.90;;;;;;6770310;88;20251;-81
2021/06/21 08:09:12;;;;;;;3.08;1.10;;;22.70;99.90;;;;;;6746988;88;20200;-78
2021/06/21 08:19:12;;;;;;;3.37;1.17;;;23.60;99.90;;;;;;6744744;88;20188;-79
2021/06/21 08:29:13;;;;;;;2.42;1.17;;;24.40;99.90;;;;;;6745717;88;20608;-80
2021/06/21 08:39:13;;;;;;;2.67;1.10;;;24.40;99.90;;;;;;6739138;88;20196;-75
2021/06/21 08:49:15;;;;;;;2.40;0.95;;;24.70;99.90;;;;;;6742981;87;20205;-77
2021/06/21 08:59:15;;;;;;;2.83;0.88;;;25.40;99.90;;;;;;6740440;88;20332;-76
2021/06/21 09:09:16;;;;;;;8.48;1.35;;;24.80;99.90;;;;;;6745594;88;20196;-77
2021/06/21 09:19:20;;;;;;;4.90;2.20;;;24.60;99.90;;;;;;6755428;88;20188;-76
2021/06/21 09:29:41;;;;;;;4.20;3.50;;;23.50;99.90;;;;;;6756518;88;20200;-77
2021/06/21 09:39:44;;;;;;;4.07;3.22;;;20.90;99.90;;;;;;6756388;87;20193;-78
2021/06/21 09:50:13;;;;;;;7.90;4.95;;;19.60;99.90;;;;;;6750813;88;20631;-77
2021/06/21 10:00:16;;;;;;;5.35;3.50;;;18.70;99.90;;;;;;6751634;88;20180;-77
2021/06/21 10:10:20;;;;;;;2.92;2.20;;;18.60;99.90;;;;;;6753854;88;20183;-78
2021/06/21 10:20:21;;;;;;;2.45;1.60;;;19.40;99.90;;;;;;6751488;88;20719;-77
2021/06/21 10:40:25;;;;;;;3.35;1.80;;;20.70;99.90;;;;;;6749000;88;20887;-77
2021/06/21 10:50:26;;;;;;;3.10;1.60;;;20.30;99.90;;;;;;6741026;88;20265;-77
2021/06/21 11:00:29;;;;;;;2.20;1.80;;;20.10;99.90;;;;;;6743332;88;20205;-78
2021/06/21 11:10:29;;;;;;;2.17;1.52;;;20.50;99.90;;;;;;6739907;88;20304;-77
2021/06/21 11:20:41;;;;;;;3.67;2.53;;;20.30;99.90;;;;;;6743128;88;20305;-77
2021/06/21 11:30:42;;;;;;;3.75;3.03;;;20.50;99.90;;;;;;6747115;87;20192;-79
2021/06/21 11:40:43;;;;;;;3.45;2.92;;;21.80;99.90;;;;;;6743354;88;20193;-76
2021/06/21 11:50:43;;;;;;;3.60;3.10;;;22.00;99.90;;;;;;6741383;88;20219;-78
2021/06/21 12:00:44;;;;;;;3.07;2.50;;;21.80;99.90;;;;;;6753063;88;20538;-77
2021/06/21 12:10:45;;;;;;;2.17;1.98;;;22.70;99.90;;;;;;6749777;88;20185;-78
2021/06/21 12:20:45;;;;;;;3.20;1.70;;;22.20;99.90;;;;;;6750122;88;20643;-77
2021/06/21 12:30:55;;;;;;;2.42;1.52;;;22.00;99.90;;;;;;6748595;88;20193;-78
2021/06/21 12:40:56;;;;;;;2.22;1.20;;;22.20;99.90;;;;;;6744789;88;20204;-77
2021/06/21 12:50:57;;;;;;;2.33;1.30;;;22.60;99.90;;;;;;6746522;88;20161;-79
2021/06/21 13:01:00;;;;;;;2.15;1.73;;;21.70;99.90;;;;;;6755592;87;20372;-75
2021/06/21 13:11:11;;;;;;;3.08;1.90;;;21.20;99.90;;;;;;6750722;88;20698;-80
2021/06/21 13:21:12;;;;;;;2.42;1.80;;;20.60;99.90;;;;;;6748845;88;20265;-80
2021/06/21 13:31:20;;;;;;;3.20;1.80;;;20.80;99.90;;;;;;6750126;87;20241;-79
2021/06/21 13:41:25;;;;;;;2.67;2.08;;;21.10;99.90;;;;;;6747487;88;20176;-76
2021/06/21 13:51:25;;;;;;;2.35;1.92;;;21.80;99.90;;;;;;6748793;88;20216;-79
2021/06/21 14:01:28;;;;;;;2.80;2.28;;;22.20;99.90;;;;;;6748139;88;20696;-80
2021/06/21 14:11:29;;;;;;;3.97;2.10;;;21.90;99.90;;;;;;6746408;88;20309;-80
2021/06/21 14:21:30;;;;;;;4.57;2.50;;;21.50;99.90;;;;;;6741570;88;20193;-79
2021/06/21 14:37:51;;;;;;;2.97;2.45;;;21.30;99.90;;;;;;6799529;86;20229;-77
2021/06/21 14:47:52;;;;;;;3.15;2.53;;;21.20;99.90;;;;;;6773648;87;20359;-82
2021/06/21 14:57:52;;;;;;;5.12;4.40;;;21.00;99.90;;;;;;6778970;87;20211;-78
2021/06/21 15:07:54;;;;;;;6.00;2.85;;;21.40;99.90;;;;;;6778906;87;20302;-78
2021/06/21 15:17:56;;;;;;;5.25;4.22;;;22.10;99.90;;;;;;6774230;87;20208;-76
2021/06/21 15:27:57;;;;;;;4.50;4.10;;;22.50;99.90;;;;;;6782270;87;20307;-79
2021/06/21 15:37:58;;;;;;;5.18;3.42;;;22.10;99.90;;;;;;6772668;87;20774;-79
2021/06/21 15:47:59;;;;;;;4.15;2.10;;;21.80;99.90;;;;;;6769680;87;20200;-78
2021/06/21 15:58:06;;;;;;;2.10;1.40;;;21.60;99.90;;;;;;6768951;87;20245;-77
2021/06/21 16:08:07;;;;;;;2.40;1.40;;;21.40;99.90;;;;;;6774543;87;20636;-78
2021/06/21 16:18:07;;;;;;;2.22;1.30;;;21.40;99.90;;;;;;6768019;87;20218;-78
2021/06/21 16:28:09;;;;;;;1.70;1.20;;;21.30;99.90;;;;;;6763189;87;20790;-78
2021/06/21 16:38:10;;;;;;;2.72;1.55;;;21.10;99.90;;;;;;6775871;87;20285;-77
2021/06/21 16:48:11;;;;;;;2.12;1.92;;;20.80;99.90;;;;;;6777611;87;20213;-78
2021/06/21 16:58:13;;;;;;;2.40;2.10;;;20.70;99.90;;;;;;6764184;87;20200;-77
2021/06/21 17:08:13;;;;;;;2.97;2.10;;;20.70;99.90;;;;;;6771397;88;20206;-80
2021/06/21 17:18:14;;;;;;;2.72;2.05;;;20.50;99.90;;;;;;6764921;88;20246;-82
2021/06/21 17:28:15;;;;;;;3.40;3.00;;;20.60;99.90;;;;;;6764770;88;20187;-79
2021/06/21 17:38:15;;;;;;;6.82;4.43;;;20.40;99.90;;;;;;6766118;88;20299;-79
2021/06/21 17:48:17;;;;;;;5.80;5.07;;;20.30;99.90;;;;;;6765081;88;20262;-80
2021/06/21 17:58:17;;;;;;;6.65;5.45;;;20.10;99.90;;;;;;6765610;88;20495;-78
2021/06/21 18:08:18;;;;;;;6.80;5.67;;;20.10;99.90;;;;;;6769981;87;20682;-77
2021/06/21 18:18:19;;;;;;;6.80;5.57;;;20.00;99.90;;;;;;6772812;87;21051;-79
2021/06/21 18:28:20;;;;;;;7.32;6.10;;;19.90;99.90;;;;;;6774184;87;20662;-78
2021/06/21 18:38:21;;;;;;;6.45;5.37;;;19.80;99.90;;;;;;6770051;87;20201;-77
2021/06/21 18:48:21;;;;;;;6.22;5.40;;;19.70;99.90;;;;;;6772652;87;20175;-78
2021/06/21 18:58:22;;;;;;;5.80;5.00;;;19.70;99.90;;;;;;6759862;87;20204;-77
2021/06/21 19:08:22;;;;;;;7.62;4.28;;;19.50;99.90;;;;;;6753449;88;20207;-77
2021/06/21 19:18:24;;;;;;;5.43;4.37;;;19.40;99.90;;;;;;6754967;88;20343;-77
2021/06/21 19:28:25;;;;;;;3.70;3.28;;;19.30;99.90;;;;;;6758340;88;20484;-78
2021/06/21 19:38:28;;;;;;;4.50;3.00;;;19.20;99.90;;;;;;6755092;88;20625;-78
2021/06/21 19:48:31;;;;;;;3.65;3.25;;;19.20;99.90;;;;;;6758181;88;20237;-78
2021/06/21 19:58:33;;;;;;;2.62;1.80;;;19.00;99.90;;;;;;6758994;88;20200;-78
2021/06/21 20:08:34;;;;;;;2.10;1.73;;;18.80;99.90;;;;;;6757231;88;20611;-77
2021/06/21 20:18:35;;;;;;;2.50;1.90;;;18.70;99.90;;;;;;6756771;88;20331;-79
2021/06/21 20:28:35;;;;;;;3.03;1.77;;;18.90;99.90;;;;;;6761434;88;20180;-80
2021/06/21 20:38:36;;;;;;;2.28;1.85;;;18.80;99.90;;;;;;6764270;88;20493;-79
2021/06/21 20:48:36;;;;;;;2.10;1.67;;;18.90;99.90;;;;;;6763669;88;20373;-78
2021/06/21 20:58:37;;;;;;;1.90;1.40;;;18.80;99.90;;;;;;6757789;88;20188;-79
2021/06/21 21:08:37;;;;;;;2.47;1.62;;;18.70;99.90;;;;;;6760965;88;20188;-78
2021/06/21 21:18:38;;;;;;;3.07;2.63;;;18.60;99.90;;;;;;6764892;88;20210;-78
2021/06/21 21:28:38;;;;;;;3.53;2.40;;;18.40;99.90;;;;;;6766046;88;20183;-80
2021/06/21 21:38:40;;;;;;;3.22;2.30;;;18.20;99.90;;;;;;6751339;88;20611;-80
2021/06/21 21:48:41;;;;;;;3.47;2.67;;;18.30;99.90;;;;;;6740030;88;20202;-78
2021/06/21 21:58:41;;;;;;;3.65;2.75;;;18.20;99.90;;;;;;6739992;88;20200;-79
2021/06/21 22:08:42;;;;;;;4.37;2.70;;;18.20;99.90;;;;;;6737377;88;20188;-79
2021/06/21 22:18:42;;;;;;;4.78;2.50;;;18.10;99.90;;;;;;6738288;88;20203;-79
2021/06/21 22:38:46;;;;;;;2.70;1.87;;;18.00;99.90;;;;;;6740945;88;20221;-79
2021/06/21 22:48:47;;;;;;;1.45;0.95;;;17.90;99.90;;;;;;6736988;88;20949;-79
2021/06/21 22:58:47;;;;;;;1.73;0.73;;;17.90;99.90;;;;;;6733771;88;20239;-78
2021/06/21 23:08:48;;;;;;;2.15;1.20;;;17.70;99.90;;;;;;6739631;88;20629;-79
2021/06/21 23:18:49;;;;;;;2.33;1.50;;;17.60;99.90;;;;;;6733092;88;20275;-78
2021/06/21 23:28:49;;;;;;;1.85;1.20;;;17.50;99.90;;;;;;6730946;88;20324;-79
2021/06/21 23:38:53;;;;;;;3.47;1.33;;;17.50;99.90;;;;;;6735910;88;20240;-79
2021/06/21 23:48:55;;;;;;;4.03;1.67;;;17.50;99.90;;;;;;6729607;88;20182;-79
2021/06/21 23:58:56;;;;;;;1.98;1.40;;;17.50;99.90;;;;;;6735313;88;20299;-79
